Haileyville, Oklahoma
Current Conditions -  °F | °C
As of 6:53 AM on Friday 24 Oct 2014 (Local Time) from KMLC Reporting Station
Clear Clear  
Wind Chill: 55°   Ceiling: Unl
Heat Index: 55°   Visibility: 10mi
Dew Point: 51°   Wind: 3mph
Humidity: 86%   Direction: 190°S
Pressure: 30.14"   Gusts: NA
Location:  34.85°N, 95.58°W
Report Text: KMLC 241153Z AUTO 19003KT 10SM CLR 13/11 A3014 RMK AO2 SLP203 70011 T01280106 10144 20111 51005
Loading
Personal Weather Stations






























Interactive Weather Map
Tropical Storm Tracking
New forecast layout! Learn more

10-Day Weather Forecast

Advertisements
Track Severe Weather on mobile